createdAt,value
2023-03-25T00:04:05.214Z,98356.17
2023-03-25T00:14:12.416Z,98344.77
2023-03-25T00:24:18.342Z,98350.59
2023-03-25T00:34:24.204Z,98349.92
2023-03-25T00:44:29.951Z,98342.38
2023-03-25T00:54:36.045Z,98342.34
2023-03-25T01:04:42.791Z,98336.66
2023-03-25T01:14:49.156Z,98340.60
2023-03-25T01:24:55.556Z,98339.52
2023-03-25T01:35:01.304Z,98341.23
2023-03-25T01:45:22.231Z,98335.34
2023-03-25T01:55:28.580Z,98328.38
2023-03-25T02:05:43.208Z,98327.79
2023-03-25T02:16:02.244Z,98335.64
2023-03-25T02:26:32.652Z,98341.61
2023-03-25T02:36:57.657Z,98332.86
2023-03-25T02:47:06.475Z,98336.00
2023-03-25T02:57:16.205Z,98323.42
2023-03-25T03:07:27.488Z,98312.64
2023-03-25T03:17:44.137Z,98319.46
2023-03-25T03:27:57.214Z,98321.53
2023-03-25T03:38:09.624Z,98328.97
2023-03-25T03:48:18.698Z,98332.55
2023-03-25T03:58:30.372Z,98326.14
2023-03-25T04:08:47.087Z,98324.45
2023-03-25T04:18:53.619Z,98326.50
2023-03-25T04:29:00.678Z,98336.41
2023-03-25T04:39:07.394Z,98356.91
2023-03-25T04:49:21.388Z,98357.95
2023-03-25T04:59:28.384Z,98353.39
2023-03-25T05:09:33.972Z,98358.04
2023-03-25T05:19:43.766Z,98357.47
2023-03-25T05:29:49.880Z,98362.88
2023-03-25T05:39:56.600Z,98356.23
2023-03-25T05:50:02.288Z,98359.08
2023-03-25T06:00:12.912Z,98366.31
2023-03-25T06:10:20.070Z,98358.09
2023-03-25T06:20:25.746Z,98337.65
2023-03-25T06:30:31.664Z,98342.33
2023-03-25T06:40:38.090Z,98346.80
2023-03-25T06:50:45.562Z,98353.66
2023-03-25T07:00:54.786Z,98354.61
2023-03-25T07:11:05.451Z,98349.54
2023-03-25T07:21:11.329Z,98355.55
2023-03-25T07:31:18.187Z,98360.70
2023-03-25T07:41:23.872Z,98353.02
2023-03-25T07:51:30.297Z,98342.73
2023-03-25T08:01:36.000Z,98333.70
2023-03-25T08:11:40.595Z,98326.02
2023-03-25T08:21:46.231Z,98333.02
2023-03-25T08:31:52.574Z,98330.06
2023-03-25T08:41:59.215Z,98320.90
2023-03-25T08:52:08.567Z,98315.45
2023-03-25T09:02:15.131Z,98305.95
2023-03-25T09:12:20.853Z,98303.79
2023-03-25T09:22:27.001Z,98298.69
2023-03-25T09:32:33.052Z,98297.23
2023-03-25T09:42:46.497Z,98306.05
2023-03-25T09:52:58.976Z,98314.73
2023-03-25T10:03:14.071Z,98316.36
2023-03-25T10:13:28.613Z,98310.40
2023-03-25T10:23:39.531Z,98287.77
2023-03-25T10:33:51.684Z,98279.95
2023-03-25T10:43:57.443Z,98271.11
2023-03-25T10:54:03.528Z,98314.36
2023-03-25T11:04:13.151Z,98336.47
2023-03-25T11:14:23.073Z,98321.91
2023-03-25T11:24:35.332Z,98309.31
2023-03-25T11:34:42.883Z,98285.55
2023-03-25T11:44:52.859Z,98262.17
2023-03-25T11:54:59.412Z,98243.92
2023-03-25T12:05:12.827Z,98234.23
2023-03-25T12:15:34.143Z,98218.14
2023-03-25T12:25:55.417Z,98215.05
2023-03-25T12:36:18.246Z,98210.54
2023-03-25T12:46:40.537Z,98196.66
2023-03-25T12:56:55.545Z,98195.24
2023-03-25T13:07:05.462Z,98226.13
2023-03-25T13:17:22.822Z,98253.71
2023-03-25T13:27:34.254Z,98241.64
2023-03-25T13:37:44.322Z,98224.02
2023-03-25T13:47:54.661Z,98207.15
2023-03-25T13:58:35.056Z,98205.13
2023-03-25T14:09:09.494Z,98195.81
2023-03-25T14:19:21.174Z,98191.55
2023-03-25T14:29:37.521Z,98186.70
2023-03-25T14:39:44.869Z,98182.02
2023-03-25T14:49:54.669Z,98180.23
2023-03-25T15:00:10.005Z,98171.31
2023-03-25T15:10:31.201Z,98171.32
2023-03-25T15:20:37.604Z,98170.08
2023-03-25T15:31:14.029Z,98174.95
2023-03-25T15:41:34.275Z,98174.03
2023-03-25T15:52:06.219Z,98168.24
2023-03-25T16:02:26.653Z,98181.05
2023-03-25T16:12:32.456Z,98194.96
2023-03-25T16:22:38.671Z,98194.32
2023-03-25T16:32:44.526Z,98192.73
2023-03-25T16:42:50.828Z,98200.60
2023-03-25T16:53:02.568Z,98206.25
2023-03-25T17:03:15.280Z,98221.37
2023-03-25T17:13:25.990Z,98238.78
2023-03-25T17:23:44.458Z,98244.75
2023-03-25T17:33:55.483Z,98250.47
2023-03-25T17:44:01.746Z,98263.78
2023-03-25T17:54:07.807Z,98270.86
2023-03-25T18:04:15.389Z,98268.29
2023-03-25T18:14:22.300Z,98273.11
2023-03-25T18:24:28.187Z,98276.92
2023-03-25T18:34:34.622Z,98274.98
2023-03-25T18:44:42.153Z,98276.64
2023-03-25T18:54:47.904Z,98283.13
2023-03-25T19:05:00.772Z,98279.13
2023-03-25T19:15:09.060Z,98273.14
2023-03-25T19:25:15.605Z,98271.75
2023-03-25T19:35:23.822Z,98276.27
2023-03-25T19:45:34.078Z,98266.79
2023-03-25T19:55:42.895Z,98262.46
2023-03-25T20:05:49.055Z,98265.92
2023-03-25T20:15:55.474Z,98265.48
2023-03-25T20:26:01.503Z,98272.55
2023-03-25T20:36:08.909Z,98278.78
2023-03-25T20:46:15.540Z,98279.67
2023-03-25T20:56:21.774Z,98266.88
2023-03-25T21:06:28.581Z,98266.24
2023-03-25T21:16:35.421Z,98268.30
2023-03-25T21:26:41.330Z,98274.46
2023-03-25T21:36:47.090Z,98271.26
2023-03-25T21:46:54.391Z,98267.83
2023-03-25T21:57:04.589Z,98262.77
2023-03-25T22:07:11.141Z,98268.83
2023-03-25T22:17:16.888Z,98276.81
2023-03-25T22:27:22.663Z,98271.46
2023-03-25T22:37:28.458Z,98268.95
2023-03-25T22:47:34.505Z,98267.08
2023-03-25T22:57:40.874Z,98271.00
2023-03-25T23:07:46.574Z,98274.80
2023-03-25T23:17:52.546Z,98276.54
2023-03-25T23:27:59.073Z,98283.05
2023-03-25T23:38:05.000Z,98283.55
2023-03-25T23:48:12.650Z,98278.30
2023-03-25T23:58:18.898Z,98274.54
